sensor_id;sensor_type;location;lat;lon;timestamp;temperature;humidity
12688;DHT22;6408;59.388;17.798;2022-07-29T00:00:07;13.50;99.90
12688;DHT22;6408;59.388;17.798;2022-07-29T00:02:35;13.50;99.90
12688;DHT22;6408;59.388;17.798;2022-07-29T00:05:02;13.50;99.90
12688;DHT22;6408;59.388;17.798;2022-07-29T00:07:31;13.40;99.90
12688;DHT22;6408;59.388;17.798;2022-07-29T00:09:57;13.40;99.90
12688;DHT22;6408;59.388;17.798;2022-07-29T00:12:25;13.40;99.90
12688;DHT22;6408;59.388;17.798;2022-07-29T00:14:52;13.40;99.90
12688;DHT22;6408;59.388;17.798;2022-07-29T00:17:20;13.40;99.90
12688;DHT22;6408;59.388;17.798;2022-07-29T00:19:47;13.30;99.90
12688;DHT22;6408;59.388;17.798;2022-07-29T00:22:14;13.20;99.90
12688;DHT22;6408;59.388;17.798;2022-07-29T00:24:42;13.20;99.90
12688;DHT22;6408;59.388;17.798;2022-07-29T00:27:09;13.10;99.90
12688;DHT22;6408;59.388;17.798;2022-07-29T00:29:37;13.10;99.90
12688;DHT22;6408;59.388;17.798;2022-07-29T00:32:04;13.10;99.90
12688;DHT22;6408;59.388;17.798;2022-07-29T00:34:31;13.10;99.90
12688;DHT22;6408;59.388;17.798;2022-07-29T00:37:15;13.00;99.90
12688;DHT22;6408;59.388;17.798;2022-07-29T00:39:44;13.00;99.90
12688;DHT22;6408;59.388;17.798;2022-07-29T00:42:11;13.00;99.90
12688;DHT22;6408;59.388;17.798;2022-07-29T00:44:38;12.90;99.90
12688;DHT22;6408;59.388;17.798;2022-07-29T00:47:05;12.80;99.90
12688;DHT22;6408;59.388;17.798;2022-07-29T00:49:33;12.80;99.90
12688;DHT22;6408;59.388;17.798;2022-07-29T00:52:00;12.80;99.90
12688;DHT22;6408;59.388;17.798;2022-07-29T00:54:28;12.90;99.90
12688;DHT22;6408;59.388;17.798;2022-07-29T00:56:56;13.00;99.90
12688;DHT22;6408;59.388;17.798;2022-07-29T00:59:25;13.00;99.90
12688;DHT22;6408;59.388;17.798;2022-07-29T01:01:52;13.00;99.90
12688;DHT22;6408;59.388;17.798;2022-07-29T01:04:20;13.10;99.90
12688;DHT22;6408;59.388;17.798;2022-07-29T01:06:47;13.10;99.90
12688;DHT22;6408;59.388;17.798;2022-07-29T01:09:15;13.00;99.90
12688;DHT22;6408;59.388;17.798;2022-07-29T01:11:42;12.90;99.90
12688;DHT22;6408;59.388;17.798;2022-07-29T01:14:11;12.90;99.90
12688;DHT22;6408;59.388;17.798;2022-07-29T01:16:51;12.80;99.90
12688;DHT22;6408;59.388;17.798;2022-07-29T01:19:36;12.70;99.90
12688;DHT22;6408;59.388;17.798;2022-07-29T01:25:12;12.60;99.90
12688;DHT22;6408;59.388;17.798;2022-07-29T01:27:52;12.50;99.90
12688;DHT22;6408;59.388;17.798;2022-07-29T01:30:29;12.50;99.90
12688;DHT22;6408;59.388;17.798;2022-07-29T01:33:02;12.40;99.90
12688;DHT22;6408;59.388;17.798;2022-07-29T01:35:35;12.40;99.90
12688;DHT22;6408;59.388;17.798;2022-07-29T01:38:07;12.30;99.90
12688;DHT22;6408;59.388;17.798;2022-07-29T01:40:38;12.40;99.90
12688;DHT22;6408;59.388;17.798;2022-07-29T01:43:11;12.50;99.90
12688;DHT22;6408;59.388;17.798;2022-07-29T01:45:45;12.60;99.90
12688;DHT22;6408;59.388;17.798;2022-07-29T01:48:16;12.70;99.90
12688;DHT22;6408;59.388;17.798;2022-07-29T01:50:47;12.70;99.90
12688;DHT22;6408;59.388;17.798;2022-07-29T01:53:18;12.60;99.90
12688;DHT22;6408;59.388;17.798;2022-07-29T01:55:48;12.60;99.90
12688;DHT22;6408;59.388;17.798;2022-07-29T01:58:19;12.70;99.90
12688;DHT22;6408;59.388;17.798;2022-07-29T02:00:48;12.60;99.90
12688;DHT22;6408;59.388;17.798;2022-07-29T02:03:17;12.60;99.90
12688;DHT22;6408;59.388;17.798;2022-07-29T02:05:46;12.60;99.90
12688;DHT22;6408;59.388;17.798;2022-07-29T02:08:15;12.50;99.90
12688;DHT22;6408;59.388;17.798;2022-07-29T02:10:44;12.40;99.90
12688;DHT22;6408;59.388;17.798;2022-07-29T02:13:12;12.30;99.90
12688;DHT22;6408;59.388;17.798;2022-07-29T02:15:42;12.20;99.90
12688;DHT22;6408;59.388;17.798;2022-07-29T02:18:14;12.30;99.90
12688;DHT22;6408;59.388;17.798;2022-07-29T02:20:45;12.30;99.90
12688;DHT22;6408;59.388;17.798;2022-07-29T02:23:15;12.20;99.90
12688;DHT22;6408;59.388;17.798;2022-07-29T02:25:45;12.20;99.90
12688;DHT22;6408;59.388;17.798;2022-07-29T02:28:14;12.20;99.90
12688;DHT22;6408;59.388;17.798;2022-07-29T02:30:44;12.20;99.90
12688;DHT22;6408;59.388;17.798;2022-07-29T02:33:14;12.10;99.90
12688;DHT22;6408;59.388;17.798;2022-07-29T02:35:43;12.00;99.90
12688;DHT22;6408;59.388;17.798;2022-07-29T02:38:13;12.00;99.90
12688;DHT22;6408;59.388;17.798;2022-07-29T02:41:00;11.90;99.90
12688;DHT22;6408;59.388;17.798;2022-07-29T02:43:29;11.90;99.90
12688;DHT22;6408;59.388;17.798;2022-07-29T02:45:59;11.90;99.90
12688;DHT22;6408;59.388;17.798;2022-07-29T02:48:34;11.80;99.90
12688;DHT22;6408;59.388;17.798;2022-07-29T02:51:06;11.80;99.90
12688;DHT22;6408;59.388;17.798;2022-07-29T02:53:39;11.80;99.90
12688;DHT22;6408;59.388;17.798;2022-07-29T02:56:12;11.80;99.90
12688;DHT22;6408;59.388;17.798;2022-07-29T02:58:42;11.80;99.90
12688;DHT22;6408;59.388;17.798;2022-07-29T03:01:13;11.80;99.90
12688;DHT22;6408;59.388;17.798;2022-07-29T03:03:44;11.90;99.90
12688;DHT22;6408;59.388;17.798;2022-07-29T03:06:13;11.80;99.90
12688;DHT22;6408;59.388;17.798;2022-07-29T03:08:42;11.90;99.90
12688;DHT22;6408;59.388;17.798;2022-07-29T03:11:09;11.90;99.90
12688;DHT22;6408;59.388;17.798;2022-07-29T03:13:36;12.00;99.90
12688;DHT22;6408;59.388;17.798;2022-07-29T03:16:04;12.00;99.90
12688;DHT22;6408;59.388;17.798;2022-07-29T03:18:33;12.00;99.90
12688;DHT22;6408;59.388;17.798;2022-07-29T03:21:02;12.00;99.90
12688;DHT22;6408;59.388;17.798;2022-07-29T03:23:29;12.00;99.90
12688;DHT22;6408;59.388;17.798;2022-07-29T03:25:59;12.20;99.90
12688;DHT22;6408;59.388;17.798;2022-07-29T03:28:26;12.30;99.90
12688;DHT22;6408;59.388;17.798;2022-07-29T03:30:53;12.40;99.90
12688;DHT22;6408;59.388;17.798;2022-07-29T03:33:21;12.60;99.90
12688;DHT22;6408;59.388;17.798;2022-07-29T03:35:48;12.70;99.90
12688;DHT22;6408;59.388;17.798;2022-07-29T03:38:16;12.80;99.90
12688;DHT22;6408;59.388;17.798;2022-07-29T03:40:48;13.00;99.90
12688;DHT22;6408;59.388;17.798;2022-07-29T03:43:17;13.20;99.90
12688;DHT22;6408;59.388;17.798;2022-07-29T03:45:47;13.30;99.90
12688;DHT22;6408;59.388;17.798;2022-07-29T03:48:19;13.50;99.90
12688;DHT22;6408;59.388;17.798;2022-07-29T03:50:48;13.60;99.90
12688;DHT22;6408;59.388;17.798;2022-07-29T03:53:17;13.60;99.90
12688;DHT22;6408;59.388;17.798;2022-07-29T03:55:46;13.60;99.90
12688;DHT22;6408;59.388;17.798;2022-07-29T03:58:15;13.70;99.90
12688;DHT22;6408;59.388;17.798;2022-07-29T04:00:43;13.80;99.90
12688;DHT22;6408;59.388;17.798;2022-07-29T04:03:10;13.90;99.90
12688;DHT22;6408;59.388;17.798;2022-07-29T04:05:37;14.00;99.90
12688;DHT22;6408;59.388;17.798;2022-07-29T04:08:05;14.10;99.90
12688;DHT22;6408;59.388;17.798;2022-07-29T04:10:33;14.20;99.90
12688;DHT22;6408;59.388;17.798;2022-07-29T04:13:00;14.30;99.90
12688;DHT22;6408;59.388;17.798;2022-07-29T04:15:27;14.40;99.90
12688;DHT22;6408;59.388;17.798;2022-07-29T04:17:54;14.50;99.90
12688;DHT22;6408;59.388;17.798;2022-07-29T04:20:21;14.70;99.90
12688;DHT22;6408;59.388;17.798;2022-07-29T04:22:47;14.90;99.90
12688;DHT22;6408;59.388;17.798;2022-07-29T04:25:14;15.00;99.90
12688;DHT22;6408;59.388;17.798;2022-07-29T04:27:42;15.20;99.90
12688;DHT22;6408;59.388;17.798;2022-07-29T04:30:23;15.30;99.90
12688;DHT22;6408;59.388;17.798;2022-07-29T04:32:50;15.40;99.90
12688;DHT22;6408;59.388;17.798;2022-07-29T04:35:16;15.60;99.90
12688;DHT22;6408;59.388;17.798;2022-07-29T04:37:43;15.70;99.90
12688;DHT22;6408;59.388;17.798;2022-07-29T04:40:11;15.90;99.90
12688;DHT22;6408;59.388;17.798;2022-07-29T04:42:38;16.00;99.90
12688;DHT22;6408;59.388;17.798;2022-07-29T04:45:07;16.10;99.90
12688;DHT22;6408;59.388;17.798;2022-07-29T04:47:34;16.20;99.90
12688;DHT22;6408;59.388;17.798;2022-07-29T04:50:01;16.30;99.90
12688;DHT22;6408;59.388;17.798;2022-07-29T04:52:27;16.40;99.90
12688;DHT22;6408;59.388;17.798;2022-07-29T04:54:54;16.50;99.90
12688;DHT22;6408;59.388;17.798;2022-07-29T04:57:21;16.60;99.90
12688;DHT22;6408;59.388;17.798;2022-07-29T04:59:48;16.70;99.90
12688;DHT22;6408;59.388;17.798;2022-07-29T05:02:16;16.80;99.90
12688;DHT22;6408;59.388;17.798;2022-07-29T05:04:43;16.90;99.90
12688;DHT22;6408;59.388;17.798;2022-07-29T05:07:09;17.00;99.90
12688;DHT22;6408;59.388;17.798;2022-07-29T05:09:36;17.10;99.90
12688;DHT22;6408;59.388;17.798;2022-07-29T05:12:03;17.20;99.90
12688;DHT22;6408;59.388;17.798;2022-07-29T05:14:30;17.30;99.90
12688;DHT22;6408;59.388;17.798;2022-07-29T05:16:57;17.40;99.90
12688;DHT22;6408;59.388;17.798;2022-07-29T05:19:25;17.50;99.90
12688;DHT22;6408;59.388;17.798;2022-07-29T05:21:52;17.60;99.90
12688;DHT22;6408;59.388;17.798;2022-07-29T05:24:19;17.80;99.90
12688;DHT22;6408;59.388;17.798;2022-07-29T05:26:46;18.00;99.90
12688;DHT22;6408;59.388;17.798;2022-07-29T05:29:12;18.10;99.90
12688;DHT22;6408;59.388;17.798;2022-07-29T05:31:39;18.20;99.90
12688;DHT22;6408;59.388;17.798;2022-07-29T05:34:06;18.40;99.90
12688;DHT22;6408;59.388;17.798;2022-07-29T05:36:34;18.50;99.90
12688;DHT22;6408;59.388;17.798;2022-07-29T05:39:01;18.60;99.90
12688;DHT22;6408;59.388;17.798;2022-07-29T05:41:27;18.60;99.90
12688;DHT22;6408;59.388;17.798;2022-07-29T05:43:54;18.80;99.90
12688;DHT22;6408;59.388;17.798;2022-07-29T05:46:21;18.80;99.90
12688;DHT22;6408;59.388;17.798;2022-07-29T05:48:48;18.80;99.90
12688;DHT22;6408;59.388;17.798;2022-07-29T05:51:15;18.70;99.90
12688;DHT22;6408;59.388;17.798;2022-07-29T05:53:43;18.80;99.90
12688;DHT22;6408;59.388;17.798;2022-07-29T05:56:10;19.00;99.90
12688;DHT22;6408;59.388;17.798;2022-07-29T05:58:37;19.20;99.90
12688;DHT22;6408;59.388;17.798;2022-07-29T06:01:04;19.30;99.90
12688;DHT22;6408;59.388;17.798;2022-07-29T06:03:30;19.30;99.90
12688;DHT22;6408;59.388;17.798;2022-07-29T06:05:57;19.40;99.90
12688;DHT22;6408;59.388;17.798;2022-07-29T06:08:24;19.60;99.90
12688;DHT22;6408;59.388;17.798;2022-07-29T06:10:52;19.70;99.90
12688;DHT22;6408;59.388;17.798;2022-07-29T06:13:19;19.80;99.90
12688;DHT22;6408;59.388;17.798;2022-07-29T06:15:46;19.90;99.90
12688;DHT22;6408;59.388;17.798;2022-07-29T06:18:13;20.00;99.90
12688;DHT22;6408;59.388;17.798;2022-07-29T06:20:39;19.90;99.90
12688;DHT22;6408;59.388;17.798;2022-07-29T06:23:06;20.10;99.90
12688;DHT22;6408;59.388;17.798;2022-07-29T06:25:33;20.20;99.90
12688;DHT22;6408;59.388;17.798;2022-07-29T06:28:03;20.20;99.90
12688;DHT22;6408;59.388;17.798;2022-07-29T06:30:30;20.30;99.90
12688;DHT22;6408;59.388;17.798;2022-07-29T06:32:57;20.30;99.90
12688;DHT22;6408;59.388;17.798;2022-07-29T06:35:24;20.50;99.90
12688;DHT22;6408;59.388;17.798;2022-07-29T06:37:50;20.60;99.90
12688;DHT22;6408;59.388;17.798;2022-07-29T06:40:17;20.70;99.90
12688;DHT22;6408;59.388;17.798;2022-07-29T06:43:03;20.60;99.90
12688;DHT22;6408;59.388;17.798;2022-07-29T06:45:30;20.80;99.90
12688;DHT22;6408;59.388;17.798;2022-07-29T06:47:56;20.80;99.90
12688;DHT22;6408;59.388;17.798;2022-07-29T06:50:23;20.90;99.90
12688;DHT22;6408;59.388;17.798;2022-07-29T06:52:50;21.00;99.90
12688;DHT22;6408;59.388;17.798;2022-07-29T06:55:16;21.00;99.90
12688;DHT22;6408;59.388;17.798;2022-07-29T06:57:44;21.10;99.90
12688;DHT22;6408;59.388;17.798;2022-07-29T07:00:14;21.20;99.90
12688;DHT22;6408;59.388;17.798;2022-07-29T07:02:40;21.20;99.90
12688;DHT22;6408;59.388;17.798;2022-07-29T07:05:07;21.30;99.90
12688;DHT22;6408;59.388;17.798;2022-07-29T07:07:34;21.30;99.90
12688;DHT22;6408;59.388;17.798;2022-07-29T07:10:01;21.40;99.90
12688;DHT22;6408;59.388;17.798;2022-07-29T07:12:28;21.50;99.90
12688;DHT22;6408;59.388;17.798;2022-07-29T07:14:54;21.40;99.90
12688;DHT22;6408;59.388;17.798;2022-07-29T07:17:22;21.50;99.90
12688;DHT22;6408;59.388;17.798;2022-07-29T07:19:49;21.50;99.90
12688;DHT22;6408;59.388;17.798;2022-07-29T07:22:16;21.50;99.90
12688;DHT22;6408;59.388;17.798;2022-07-29T07:24:43;21.60;99.90
12688;DHT22;6408;59.388;17.798;2022-07-29T07:27:09;21.70;99.90
12688;DHT22;6408;59.388;17.798;2022-07-29T07:29:36;21.60;99.90
12688;DHT22;6408;59.388;17.798;2022-07-29T07:32:06;21.70;99.90
12688;DHT22;6408;59.388;17.798;2022-07-29T07:34:34;21.80;99.90
12688;DHT22;6408;59.388;17.798;2022-07-29T07:37:03;21.90;99.90
12688;DHT22;6408;59.388;17.798;2022-07-29T07:39:29;21.90;99.90
12688;DHT22;6408;59.388;17.798;2022-07-29T07:41:56;22.00;99.90
12688;DHT22;6408;59.388;17.798;2022-07-29T07:44:23;22.20;99.90
12688;DHT22;6408;59.388;17.798;2022-07-29T07:46:50;22.30;99.90
12688;DHT22;6408;59.388;17.798;2022-07-29T07:49:16;22.40;99.90
12688;DHT22;6408;59.388;17.798;2022-07-29T07:51:44;22.40;99.90
12688;DHT22;6408;59.388;17.798;2022-07-29T07:54:11;22.40;99.90
12688;DHT22;6408;59.388;17.798;2022-07-29T07:56:38;22.50;99.90
12688;DHT22;6408;59.388;17.798;2022-07-29T07:59:05;22.60;99.90
12688;DHT22;6408;59.388;17.798;2022-07-29T08:01:32;22.70;99.90
12688;DHT22;6408;59.388;17.798;2022-07-29T08:03:59;22.80;99.90
12688;DHT22;6408;59.388;17.798;2022-07-29T08:06:25;22.80;99.90
12688;DHT22;6408;59.388;17.798;2022-07-29T08:08:53;22.90;99.90
12688;DHT22;6408;59.388;17.798;2022-07-29T08:11:20;22.90;99.90
12688;DHT22;6408;59.388;17.798;2022-07-29T08:13:47;23.00;99.90
12688;DHT22;6408;59.388;17.798;2022-07-29T08:16:14;23.00;99.90
12688;DHT22;6408;59.388;17.798;2022-07-29T08:18:42;23.10;99.90
12688;DHT22;6408;59.388;17.798;2022-07-29T08:21:09;23.20;99.90
12688;DHT22;6408;59.388;17.798;2022-07-29T08:23:36;23.40;99.90
12688;DHT22;6408;59.388;17.798;2022-07-29T08:26:06;23.50;99.90
12688;DHT22;6408;59.388;17.798;2022-07-29T08:28:36;23.70;99.90
12688;DHT22;6408;59.388;17.798;2022-07-29T08:31:03;23.70;99.90
12688;DHT22;6408;59.388;17.798;2022-07-29T08:33:30;24.00;99.90
12688;DHT22;6408;59.388;17.798;2022-07-29T08:35:57;24.40;99.90
12688;DHT22;6408;59.388;17.798;2022-07-29T08:38:23;24.60;99.90
12688;DHT22;6408;59.388;17.798;2022-07-29T08:40:51;25.00;99.90
12688;DHT22;6408;59.388;17.798;2022-07-29T08:43:19;25.30;99.90
12688;DHT22;6408;59.388;17.798;2022-07-29T08:45:48;25.50;99.90
12688;DHT22;6408;59.388;17.798;2022-07-29T08:48:16;25.60;99.90
12688;DHT22;6408;59.388;17.798;2022-07-29T08:50:44;25.70;99.90
12688;DHT22;6408;59.388;17.798;2022-07-29T08:53:13;25.80;99.90
12688;DHT22;6408;59.388;17.798;2022-07-29T08:55:42;26.00;99.90
12688;DHT22;6408;59.388;17.798;2022-07-29T08:58:09;25.80;99.90
12688;DHT22;6408;59.388;17.798;2022-07-29T09:00:41;25.60;99.90
12688;DHT22;6408;59.388;17.798;2022-07-29T09:03:09;25.30;99.90
12688;DHT22;6408;59.388;17.798;2022-07-29T09:05:41;24.90;99.90
12688;DHT22;6408;59.388;17.798;2022-07-29T09:08:08;24.70;99.90
12688;DHT22;6408;59.388;17.798;2022-07-29T09:10:36;24.40;99.90
12688;DHT22;6408;59.388;17.798;2022-07-29T09:13:03;24.50;99.90
12688;DHT22;6408;59.388;17.798;2022-07-29T09:15:30;24.90;99.90
12688;DHT22;6408;59.388;17.798;2022-07-29T09:17:58;25.00;99.90
12688;DHT22;6408;59.388;17.798;2022-07-29T09:20:26;24.70;99.90
12688;DHT22;6408;59.388;17.798;2022-07-29T09:23:13;24.30;99.90
12688;DHT22;6408;59.388;17.798;2022-07-29T09:25:41;23.90;99.90
12688;DHT22;6408;59.388;17.798;2022-07-29T09:28:08;24.00;99.90
12688;DHT22;6408;59.388;17.798;2022-07-29T09:30:36;24.00;99.90
12688;DHT22;6408;59.388;17.798;2022-07-29T09:33:17;24.00;99.90
12688;DHT22;6408;59.388;17.798;2022-07-29T09:35:44;23.80;99.90
12688;DHT22;6408;59.388;17.798;2022-07-29T09:38:12;23.90;99.90
12688;DHT22;6408;59.388;17.798;2022-07-29T09:40:39;24.10;99.90
12688;DHT22;6408;59.388;17.798;2022-07-29T09:43:10;24.40;99.90
12688;DHT22;6408;59.388;17.798;2022-07-29T09:45:38;24.30;99.90
12688;DHT22;6408;59.388;17.798;2022-07-29T09:48:14;24.50;99.90
12688;DHT22;6408;59.388;17.798;2022-07-29T09:50:43;24.70;99.90
12688;DHT22;6408;59.388;17.798;2022-07-29T09:53:11;25.00;99.90
12688;DHT22;6408;59.388;17.798;2022-07-29T09:55:47;24.80;99.90
12688;DHT22;6408;59.388;17.798;2022-07-29T09:58:16;24.80;99.90
12688;DHT22;6408;59.388;17.798;2022-07-29T10:00:44;24.80;99.90
12688;DHT22;6408;59.388;17.798;2022-07-29T10:03:12;25.10;99.90
12688;DHT22;6408;59.388;17.798;2022-07-29T10:05:38;24.90;99.90
12688;DHT22;6408;59.388;17.798;2022-07-29T10:08:10;24.80;99.90
12688;DHT22;6408;59.388;17.798;2022-07-29T10:10:39;24.90;99.90
12688;DHT22;6408;59.388;17.798;2022-07-29T10:13:07;25.00;99.90
12688;DHT22;6408;59.388;17.798;2022-07-29T10:15:36;24.80;99.90
12688;DHT22;6408;59.388;17.798;2022-07-29T10:18:05;24.90;99.90
12688;DHT22;6408;59.388;17.798;2022-07-29T10:20:32;25.00;99.90
12688;DHT22;6408;59.388;17.798;2022-07-29T10:22:59;25.00;99.90
12688;DHT22;6408;59.388;17.798;2022-07-29T10:25:28;25.00;99.90
12688;DHT22;6408;59.388;17.798;2022-07-29T10:27:55;25.20;99.90
12688;DHT22;6408;59.388;17.798;2022-07-29T10:30:24;25.40;99.90
12688;DHT22;6408;59.388;17.798;2022-07-29T10:33:07;25.50;99.90
12688;DHT22;6408;59.388;17.798;2022-07-29T10:35:48;25.40;99.90
12688;DHT22;6408;59.388;17.798;2022-07-29T10:38:30;25.50;99.90
12688;DHT22;6408;59.388;17.798;2022-07-29T10:41:11;25.40;99.90
12688;DHT22;6408;59.388;17.798;2022-07-29T10:43:56;25.40;99.90
12688;DHT22;6408;59.388;17.798;2022-07-29T10:46:25;25.40;99.90
12688;DHT22;6408;59.388;17.798;2022-07-29T10:49:08;25.40;99.90
12688;DHT22;6408;59.388;17.798;2022-07-29T10:51:58;25.50;99.90
12688;DHT22;6408;59.388;17.798;2022-07-29T10:54:47;25.50;99.90
12688;DHT22;6408;59.388;17.798;2022-07-29T10:57:23;25.50;99.90
12688;DHT22;6408;59.388;17.798;2022-07-29T11:00:30;25.40;99.90
12688;DHT22;6408;59.388;17.798;2022-07-29T11:02:58;25.60;99.90
12688;DHT22;6408;59.388;17.798;2022-07-29T11:05:26;25.80;99.90
12688;DHT22;6408;59.388;17.798;2022-07-29T11:14:05;25.90;99.90
12688;DHT22;6408;59.388;17.798;2022-07-29T11:16:59;25.90;99.90
12688;DHT22;6408;59.388;17.798;2022-07-29T11:19:28;26.00;99.90
12688;DHT22;6408;59.388;17.798;2022-07-29T11:21:55;25.90;99.90
12688;DHT22;6408;59.388;17.798;2022-07-29T11:24:24;25.70;99.90
12688;DHT22;6408;59.388;17.798;2022-07-29T11:27:13;26.00;99.90
12688;DHT22;6408;59.388;17.798;2022-07-29T11:29:50;25.90;99.90
12688;DHT22;6408;59.388;17.798;2022-07-29T11:32:18;25.90;99.90
12688;DHT22;6408;59.388;17.798;2022-07-29T11:34:47;26.20;99.90
12688;DHT22;6408;59.388;17.798;2022-07-29T11:37:19;26.50;99.90
12688;DHT22;6408;59.388;17.798;2022-07-29T11:42:43;26.60;99.90
12688;DHT22;6408;59.388;17.798;2022-07-29T11:45:13;26.60;99.90
12688;DHT22;6408;59.388;17.798;2022-07-29T11:47:46;26.50;99.90
12688;DHT22;6408;59.388;17.798;2022-07-29T11:50:15;26.70;99.90
12688;DHT22;6408;59.388;17.798;2022-07-29T11:52:44;26.50;99.90
12688;DHT22;6408;59.388;17.798;2022-07-29T11:55:14;26.20;99.90
12688;DHT22;6408;59.388;17.798;2022-07-29T11:57:48;26.10;99.90
12688;DHT22;6408;59.388;17.798;2022-07-29T12:00:28;26.10;99.90
12688;DHT22;6408;59.388;17.798;2022-07-29T12:02:56;25.80;99.90
12688;DHT22;6408;59.388;17.798;2022-07-29T12:05:35;25.90;99.90
12688;DHT22;6408;59.388;17.798;2022-07-29T12:08:10;26.10;99.90
12688;DHT22;6408;59.388;17.798;2022-07-29T12:10:38;26.10;99.90
12688;DHT22;6408;59.388;17.798;2022-07-29T12:13:05;26.40;99.90
12688;DHT22;6408;59.388;17.798;2022-07-29T12:15:35;26.50;99.90
12688;DHT22;6408;59.388;17.798;2022-07-29T12:18:15;26.50;99.90
12688;DHT22;6408;59.388;17.798;2022-07-29T12:20:43;26.50;99.90
12688;DHT22;6408;59.388;17.798;2022-07-29T12:23:11;26.50;99.90
12688;DHT22;6408;59.388;17.798;2022-07-29T12:25:39;26.30;99.90
12688;DHT22;6408;59.388;17.798;2022-07-29T12:28:08;26.60;99.90
12688;DHT22;6408;59.388;17.798;2022-07-29T12:30:39;26.70;99.90
12688;DHT22;6408;59.388;17.798;2022-07-29T12:33:18;26.70;99.90
12688;DHT22;6408;59.388;17.798;2022-07-29T12:35:47;26.40;99.90
12688;DHT22;6408;59.388;17.798;2022-07-29T12:38:15;26.50;99.90
12688;DHT22;6408;59.388;17.798;2022-07-29T12:40:43;26.60;99.90
12688;DHT22;6408;59.388;17.798;2022-07-29T12:43:12;26.60;99.90
12688;DHT22;6408;59.388;17.798;2022-07-29T12:45:42;26.60;99.90
12688;DHT22;6408;59.388;17.798;2022-07-29T12:48:10;26.70;99.90
12688;DHT22;6408;59.388;17.798;2022-07-29T12:50:52;26.70;99.90
12688;DHT22;6408;59.388;17.798;2022-07-29T12:53:19;26.70;99.90
12688;DHT22;6408;59.388;17.798;2022-07-29T12:55:47;26.30;99.90
12688;DHT22;6408;59.388;17.798;2022-07-29T12:58:26;26.50;99.90
12688;DHT22;6408;59.388;17.798;2022-07-29T13:01:07;26.60;99.90
12688;DHT22;6408;59.388;17.798;2022-07-29T13:03:43;26.60;99.90
12688;DHT22;6408;59.388;17.798;2022-07-29T13:06:28;26.70;99.90
12688;DHT22;6408;59.388;17.798;2022-07-29T13:08:59;26.60;99.90
12688;DHT22;6408;59.388;17.798;2022-07-29T13:11:30;26.40;99.90
12688;DHT22;6408;59.388;17.798;2022-07-29T13:13:57;26.40;99.90
12688;DHT22;6408;59.388;17.798;2022-07-29T13:16:26;26.30;99.90
12688;DHT22;6408;59.388;17.798;2022-07-29T13:19:07;26.40;99.90
12688;DHT22;6408;59.388;17.798;2022-07-29T13:21:35;26.40;99.90
12688;DHT22;6408;59.388;17.798;2022-07-29T13:24:02;26.40;99.90
12688;DHT22;6408;59.388;17.798;2022-07-29T13:26:29;26.50;99.90
12688;DHT22;6408;59.388;17.798;2022-07-29T13:28:56;26.10;99.90
12688;DHT22;6408;59.388;17.798;2022-07-29T13:31:23;26.20;99.90
12688;DHT22;6408;59.388;17.798;2022-07-29T13:33:51;26.40;99.90
12688;DHT22;6408;59.388;17.798;2022-07-29T13:36:18;26.40;99.90
12688;DHT22;6408;59.388;17.798;2022-07-29T13:38:45;26.40;99.90
12688;DHT22;6408;59.388;17.798;2022-07-29T13:41:12;26.30;99.90
12688;DHT22;6408;59.388;17.798;2022-07-29T13:43:39;26.20;99.90
12688;DHT22;6408;59.388;17.798;2022-07-29T13:46:06;26.30;99.90
12688;DHT22;6408;59.388;17.798;2022-07-29T13:48:32;26.50;99.90
12688;DHT22;6408;59.388;17.798;2022-07-29T13:51:01;26.50;99.90
12688;DHT22;6408;59.388;17.798;2022-07-29T13:53:27;26.30;99.90
12688;DHT22;6408;59.388;17.798;2022-07-29T13:55:54;26.30;99.90
12688;DHT22;6408;59.388;17.798;2022-07-29T13:58:21;26.30;99.90
12688;DHT22;6408;59.388;17.798;2022-07-29T14:00:48;26.10;99.90
12688;DHT22;6408;59.388;17.798;2022-07-29T14:03:15;26.10;99.90
12688;DHT22;6408;59.388;17.798;2022-07-29T14:05:42;26.30;99.90
12688;DHT22;6408;59.388;17.798;2022-07-29T14:08:10;26.20;99.20
12688;DHT22;6408;59.388;17.798;2022-07-29T14:10:36;26.00;99.60
12688;DHT22;6408;59.388;17.798;2022-07-29T14:13:03;26.00;99.30
12688;DHT22;6408;59.388;17.798;2022-07-29T14:15:30;26.10;99.90
12688;DHT22;6408;59.388;17.798;2022-07-29T14:17:57;26.10;99.90
12688;DHT22;6408;59.388;17.798;2022-07-29T14:20:23;26.00;99.90
12688;DHT22;6408;59.388;17.798;2022-07-29T14:22:50;26.10;99.90
12688;DHT22;6408;59.388;17.798;2022-07-29T14:25:18;26.20;99.90
12688;DHT22;6408;59.388;17.798;2022-07-29T14:27:45;26.00;99.30
12688;DHT22;6408;59.388;17.798;2022-07-29T14:30:13;25.90;99.40
12688;DHT22;6408;59.388;17.798;2022-07-29T14:32:40;26.00;99.70
12688;DHT22;6408;59.388;17.798;2022-07-29T14:35:07;26.00;99.90
12688;DHT22;6408;59.388;17.798;2022-07-29T14:37:34;25.70;99.90
12688;DHT22;6408;59.388;17.798;2022-07-29T14:40:02;25.40;99.90
12688;DHT22;6408;59.388;17.798;2022-07-29T14:42:30;25.20;99.90
12688;DHT22;6408;59.388;17.798;2022-07-29T14:44:57;24.90;99.90
12688;DHT22;6408;59.388;17.798;2022-07-29T14:47:24;24.80;99.90
12688;DHT22;6408;59.388;17.798;2022-07-29T14:49:51;25.10;99.90
12688;DHT22;6408;59.388;17.798;2022-07-29T14:52:17;25.40;99.90
12688;DHT22;6408;59.388;17.798;2022-07-29T14:54:44;25.30;99.90
12688;DHT22;6408;59.388;17.798;2022-07-29T14:57:11;25.30;99.90
12688;DHT22;6408;59.388;17.798;2022-07-29T14:59:39;25.40;99.90
12688;DHT22;6408;59.388;17.798;2022-07-29T15:02:06;25.40;99.90
12688;DHT22;6408;59.388;17.798;2022-07-29T15:04:33;25.40;99.90
12688;DHT22;6408;59.388;17.798;2022-07-29T15:07:00;25.40;99.90
12688;DHT22;6408;59.388;17.798;2022-07-29T15:09:26;25.30;99.90
12688;DHT22;6408;59.388;17.798;2022-07-29T15:11:53;25.40;99.90
12688;DHT22;6408;59.388;17.798;2022-07-29T15:14:20;25.20;99.90
12688;DHT22;6408;59.388;17.798;2022-07-29T15:16:48;25.20;99.90
12688;DHT22;6408;59.388;17.798;2022-07-29T15:19:15;25.40;99.90
12688;DHT22;6408;59.388;17.798;2022-07-29T15:21:42;25.50;99.90
12688;DHT22;6408;59.388;17.798;2022-07-29T15:24:09;25.60;99.90
12688;DHT22;6408;59.388;17.798;2022-07-29T15:26:35;25.60;99.90
12688;DHT22;6408;59.388;17.798;2022-07-29T15:29:02;25.40;99.90
12688;DHT22;6408;59.388;17.798;2022-07-29T15:31:29;25.30;99.90
12688;DHT22;6408;59.388;17.798;2022-07-29T15:33:57;25.40;99.90
12688;DHT22;6408;59.388;17.798;2022-07-29T15:36:24;25.30;99.40
12688;DHT22;6408;59.388;17.798;2022-07-29T15:38:52;25.30;99.80
12688;DHT22;6408;59.388;17.798;2022-07-29T15:41:20;25.30;99.50
12688;DHT22;6408;59.388;17.798;2022-07-29T15:43:47;25.10;99.90
12688;DHT22;6408;59.388;17.798;2022-07-29T15:46:15;25.10;99.60
12688;DHT22;6408;59.388;17.798;2022-07-29T15:49:03;25.00;99.30
12688;DHT22;6408;59.388;17.798;2022-07-29T15:51:30;25.00;99.80
12688;DHT22;6408;59.388;17.798;2022-07-29T15:53:57;25.00;99.90